sensor_id;sensor_type;location;lat;lon;timestamp;pressure;altitude;pressure_sealevel;temperature;humidity
46506;BME280;32220;49.808;9.968;2023-08-12T00:02:17;99123.72;;;20.81;63.40
46506;BME280;32220;49.808;9.968;2023-08-12T00:04:45;99146.34;;;20.88;63.29
46506;BME280;32220;49.808;9.968;2023-08-12T00:07:13;99128.03;;;20.74;63.38
46506;BME280;32220;49.808;9.968;2023-08-12T00:09:41;99141.56;;;20.82;63.66
46506;BME280;32220;49.808;9.968;2023-08-12T00:12:08;99140.19;;;20.78;63.56
46506;BME280;32220;49.808;9.968;2023-08-12T00:14:36;99121.19;;;20.62;63.81
46506;BME280;32220;49.808;9.968;2023-08-12T00:17:04;99106.78;;;20.53;63.79
46506;BME280;32220;49.808;9.968;2023-08-12T00:19:33;99125.75;;;20.61;64.05
46506;BME280;32220;49.808;9.968;2023-08-12T00:22:00;99115.72;;;20.54;64.04
46506;BME280;32220;49.808;9.968;2023-08-12T00:24:28;99127.72;;;20.59;64.35
46506;BME280;32220;49.808;9.968;2023-08-12T00:26:55;99119.09;;;20.56;64.50
46506;BME280;32220;49.808;9.968;2023-08-12T00:29:23;99092.06;;;20.39;64.14
46506;BME280;32220;49.808;9.968;2023-08-12T00:31:50;99100.78;;;20.41;64.58
46506;BME280;32220;49.808;9.968;2023-08-12T00:34:18;99102.19;;;20.46;64.68
46506;BME280;32220;49.808;9.968;2023-08-12T00:36:47;99075.63;;;20.33;64.53
46506;BME280;32220;49.808;9.968;2023-08-12T00:39:15;99088.66;;;20.37;64.58
46506;BME280;32220;49.808;9.968;2023-08-12T00:41:42;99079.91;;;20.35;64.90
46506;BME280;32220;49.808;9.968;2023-08-12T00:44:10;99099.78;;;20.42;65.20
46506;BME280;32220;49.808;9.968;2023-08-12T00:46:38;99086.53;;;20.31;64.90
46506;BME280;32220;49.808;9.968;2023-08-12T00:49:07;99077.09;;;20.27;65.02
46506;BME280;32220;49.808;9.968;2023-08-12T00:51:35;99090.91;;;20.32;65.35
46506;BME280;32220;49.808;9.968;2023-08-12T00:54:05;99071.31;;;20.22;65.35
46506;BME280;32220;49.808;9.968;2023-08-12T00:56:35;99069.78;;;20.20;65.50
46506;BME280;32220;49.808;9.968;2023-08-12T00:59:04;99064.88;;;20.15;65.56
46506;BME280;32220;49.808;9.968;2023-08-12T01:01:32;99058.94;;;20.12;65.81
46506;BME280;32220;49.808;9.968;2023-08-12T01:04:00;99067.59;;;20.05;65.71
46506;BME280;32220;49.808;9.968;2023-08-12T01:06:28;99078.06;;;20.08;65.87
46506;BME280;32220;49.808;9.968;2023-08-12T01:08:56;99076.06;;;20.11;65.91
46506;BME280;32220;49.808;9.968;2023-08-12T01:11:40;99074.50;;;20.08;66.26
46506;BME280;32220;49.808;9.968;2023-08-12T01:14:13;99075.66;;;20.05;66.25
46506;BME280;32220;49.808;9.968;2023-08-12T01:16:45;99075.81;;;20.04;66.28
46506;BME280;32220;49.808;9.968;2023-08-12T01:19:22;99068.72;;;20.03;66.08
46506;BME280;32220;49.808;9.968;2023-08-12T01:21:53;99063.34;;;20.03;66.43
46506;BME280;32220;49.808;9.968;2023-08-12T01:24:25;99054.28;;;20.04;66.48
46506;BME280;32220;49.808;9.968;2023-08-12T01:26:53;99055.97;;;20.05;66.65
46506;BME280;32220;49.808;9.968;2023-08-12T01:29:21;99055.97;;;20.05;66.45
46506;BME280;32220;49.808;9.968;2023-08-12T01:31:52;99039.06;;;19.95;66.71
46506;BME280;32220;49.808;9.968;2023-08-12T01:34:28;99041.75;;;19.95;66.58
46506;BME280;32220;49.808;9.968;2023-08-12T01:37:01;99037.38;;;19.94;66.78
46506;BME280;32220;49.808;9.968;2023-08-12T01:39:33;99048.84;;;19.96;66.68
46506;BME280;32220;49.808;9.968;2023-08-12T01:42:03;99040.75;;;19.96;66.41
46506;BME280;32220;49.808;9.968;2023-08-12T01:44:31;99030.63;;;19.90;66.42
46506;BME280;32220;49.808;9.968;2023-08-12T01:46:59;99027.25;;;19.88;66.67
46506;BME280;32220;49.808;9.968;2023-08-12T01:49:27;99045.16;;;19.97;66.59
46506;BME280;32220;49.808;9.968;2023-08-12T01:51:54;99039.38;;;19.92;66.32
46506;BME280;32220;49.808;9.968;2023-08-12T01:54:23;99050.81;;;19.94;66.47
46506;BME280;32220;49.808;9.968;2023-08-12T01:56:52;99031.63;;;19.89;66.61
46506;BME280;32220;49.808;9.968;2023-08-12T01:59:20;99031.47;;;19.90;67.00
46506;BME280;32220;49.808;9.968;2023-08-12T02:01:47;99013.69;;;19.80;66.95
46506;BME280;32220;49.808;9.968;2023-08-12T02:04:15;98999.03;;;19.74;66.92
46506;BME280;32220;49.808;9.968;2023-08-12T02:06:43;99041.38;;;19.90;67.14
46506;BME280;32220;49.808;9.968;2023-08-12T02:09:10;99014.69;;;19.79;67.10
46506;BME280;32220;49.808;9.968;2023-08-12T02:11:38;99039.69;;;19.89;67.32
46506;BME280;32220;49.808;9.968;2023-08-12T02:14:07;99041.69;;;19.87;67.62
46506;BME280;32220;49.808;9.968;2023-08-12T02:16:35;99023.78;;;19.78;67.36
46506;BME280;32220;49.808;9.968;2023-08-12T02:19:03;99031.22;;;19.84;67.69
46506;BME280;32220;49.808;9.968;2023-08-12T02:21:31;99019.38;;;19.77;67.58
46506;BME280;32220;49.808;9.968;2023-08-12T02:24:00;99030.06;;;19.86;67.78
46506;BME280;32220;49.808;9.968;2023-08-12T02:26:27;99013.69;;;19.80;69.16
46506;BME280;32220;49.808;9.968;2023-08-12T02:28:55;99015.09;;;19.84;69.05
46506;BME280;32220;49.808;9.968;2023-08-12T02:31:24;99023.25;;;19.92;68.91
46506;BME280;32220;49.808;9.968;2023-08-12T02:33:52;99002.66;;;19.83;68.90
46506;BME280;32220;49.808;9.968;2023-08-12T02:36:20;98998.97;;;19.84;69.07
46506;BME280;32220;49.808;9.968;2023-08-12T02:38:47;99003.06;;;19.88;68.91
46506;BME280;32220;49.808;9.968;2023-08-12T02:41:15;99002.06;;;19.89;69.01
46506;BME280;32220;49.808;9.968;2023-08-12T02:43:42;99000.66;;;19.85;68.95
46506;BME280;32220;49.808;9.968;2023-08-12T02:46:10;99015.44;;;19.98;69.14
46506;BME280;32220;49.808;9.968;2023-08-12T02:48:40;98984.97;;;19.80;69.22
46506;BME280;32220;49.808;9.968;2023-08-12T02:51:08;99003.13;;;19.96;69.55
46506;BME280;32220;49.808;9.968;2023-08-12T02:53:36;98999.75;;;19.94;70.11
46506;BME280;32220;49.808;9.968;2023-08-12T02:56:04;98986.94;;;19.88;69.72
46506;BME280;32220;49.808;9.968;2023-08-12T02:58:32;98992.69;;;19.93;70.17
46506;BME280;32220;49.808;9.968;2023-08-12T03:01:00;99012.25;;;20.03;69.98
46506;BME280;32220;49.808;9.968;2023-08-12T03:03:30;99006.53;;;19.98;69.73
46506;BME280;32220;49.808;9.968;2023-08-12T03:05:59;99013.28;;;20.02;69.54
46506;BME280;32220;49.808;9.968;2023-08-12T03:08:28;99010.06;;;19.98;69.42
46506;BME280;32220;49.808;9.968;2023-08-12T03:10:59;99009.06;;;19.99;69.82
46506;BME280;32220;49.808;9.968;2023-08-12T03:13:27;98993.28;;;19.87;69.65
46506;BME280;32220;49.808;9.968;2023-08-12T03:15:55;99010.50;;;19.94;69.68
46506;BME280;32220;49.808;9.968;2023-08-12T03:18:23;99012.03;;;19.96;69.76
46506;BME280;32220;49.808;9.968;2023-08-12T03:20:51;99000.38;;;19.88;69.90
46506;BME280;32220;49.808;9.968;2023-08-12T03:23:22;98993.03;;;19.80;69.80
46506;BME280;32220;49.808;9.968;2023-08-12T03:25:50;99000.66;;;19.85;69.97
46506;BME280;32220;49.808;9.968;2023-08-12T03:28:17;98993.38;;;19.77;69.79
46506;BME280;32220;49.808;9.968;2023-08-12T03:30:50;98986.88;;;19.70;70.10
46506;BME280;32220;49.808;9.968;2023-08-12T03:33:19;99026.91;;;19.91;69.87
46506;BME280;32220;49.808;9.968;2023-08-12T03:35:48;99015.94;;;19.84;69.88
46506;BME280;32220;49.808;9.968;2023-08-12T03:38:16;99011.56;;;19.83;70.01
46506;BME280;32220;49.808;9.968;2023-08-12T03:40:47;99034.84;;;19.92;70.74
46506;BME280;32220;49.808;9.968;2023-08-12T03:43:17;99026.69;;;19.84;71.14
46506;BME280;32220;49.808;9.968;2023-08-12T03:45:47;99011.69;;;19.82;71.12
46506;BME280;32220;49.808;9.968;2023-08-12T03:48:17;99011.41;;;19.85;72.20
46506;BME280;32220;49.808;9.968;2023-08-12T03:50:46;98994.44;;;19.84;73.47
46506;BME280;32220;49.808;9.968;2023-08-12T03:53:14;98993.53;;;19.93;77.05
46506;BME280;32220;49.808;9.968;2023-08-12T03:55:42;98979.44;;;19.82;78.35
46506;BME280;32220;49.808;9.968;2023-08-12T03:58:14;98999.22;;;19.90;77.87
46506;BME280;32220;49.808;9.968;2023-08-12T04:00:41;98979.75;;;19.79;77.50
46506;BME280;32220;49.808;9.968;2023-08-12T04:03:10;99001.44;;;19.95;77.28
46506;BME280;32220;49.808;9.968;2023-08-12T04:05:47;98985.00;;;19.98;76.99
46506;BME280;32220;49.808;9.968;2023-08-12T04:08:15;98964.47;;;19.79;79.03
46506;BME280;32220;49.808;9.968;2023-08-12T04:10:44;98984.53;;;19.85;78.99
46506;BME280;32220;49.808;9.968;2023-08-12T04:13:14;98979.75;;;19.79;78.99
46506;BME280;32220;49.808;9.968;2023-08-12T04:15:42;98966.78;;;19.74;79.79
46506;BME280;32220;49.808;9.968;2023-08-12T04:18:10;98933.78;;;19.54;79.14
46506;BME280;32220;49.808;9.968;2023-08-12T04:20:38;98982.91;;;19.92;78.52
46506;BME280;32220;49.808;9.968;2023-08-12T04:23:06;98984.25;;;19.88;77.70
46506;BME280;32220;49.808;9.968;2023-08-12T04:25:35;98992.69;;;19.93;77.69
46506;BME280;32220;49.808;9.968;2023-08-12T04:28:03;99000.84;;;20.01;77.58
46506;BME280;32220;49.808;9.968;2023-08-12T04:30:34;98986.56;;;20.00;77.26
46506;BME280;32220;49.808;9.968;2023-08-12T04:33:03;98974.25;;;19.98;77.51
46506;BME280;32220;49.808;9.968;2023-08-12T04:35:32;98993.00;;;20.07;77.15
46506;BME280;32220;49.808;9.968;2023-08-12T04:38:00;98998.22;;;20.09;77.39
46506;BME280;32220;49.808;9.968;2023-08-12T04:40:28;98983.03;;;20.00;77.50
46506;BME280;32220;49.808;9.968;2023-08-12T04:42:56;98996.25;;;20.11;77.49
46506;BME280;32220;49.808;9.968;2023-08-12T04:45:24;98983.78;;;20.10;77.09
46506;BME280;32220;49.808;9.968;2023-08-12T04:47:55;98966.56;;;20.03;76.99
46506;BME280;32220;49.808;9.968;2023-08-12T04:50:23;98980.47;;;20.16;77.32
46506;BME280;32220;49.808;9.968;2023-08-12T04:52:51;98998.06;;;20.28;77.17
46506;BME280;32220;49.808;9.968;2023-08-12T04:55:19;98993.25;;;20.32;77.24
46506;BME280;32220;49.808;9.968;2023-08-12T04:57:47;98966.97;;;20.26;76.92
46506;BME280;32220;49.808;9.968;2023-08-12T05:00:15;98988.34;;;20.45;76.75
46506;BME280;32220;49.808;9.968;2023-08-12T05:02:43;98986.56;;;20.54;76.28
46506;BME280;32220;49.808;9.968;2023-08-12T05:05:14;98989.34;;;20.62;76.11
46506;BME280;32220;49.808;9.968;2023-08-12T05:07:41;98989.22;;;20.71;76.10
46506;BME280;32220;49.808;9.968;2023-08-12T05:10:11;98989.13;;;20.81;76.24
46506;BME280;32220;49.808;9.968;2023-08-12T05:12:38;98975.66;;;20.81;75.99
46506;BME280;32220;49.808;9.968;2023-08-12T05:15:07;98998.34;;;20.96;75.59
46506;BME280;32220;49.808;9.968;2023-08-12T05:17:35;98995.69;;;21.04;76.25
46506;BME280;32220;49.808;9.968;2023-08-12T05:20:04;98997.38;;;21.05;76.44
46506;BME280;32220;49.808;9.968;2023-08-12T05:22:34;99002.44;;;21.08;76.59
46506;BME280;32220;49.808;9.968;2023-08-12T05:25:01;99010.91;;;21.13;76.35
46506;BME280;32220;49.808;9.968;2023-08-12T05:27:29;99018.28;;;21.11;76.32
46506;BME280;32220;49.808;9.968;2023-08-12T05:29:57;99029.22;;;21.10;76.69
46506;BME280;32220;49.808;9.968;2023-08-12T05:32:25;99025.31;;;21.04;76.48
46506;BME280;32220;49.808;9.968;2023-08-12T05:34:53;99024.59;;;21.02;76.47
46506;BME280;32220;49.808;9.968;2023-08-12T05:37:20;99014.34;;;20.98;76.40
46506;BME280;32220;49.808;9.968;2023-08-12T05:39:49;99012.00;;;21.03;76.59
46506;BME280;32220;49.808;9.968;2023-08-12T05:42:17;98971.53;;;20.87;76.74
46506;BME280;32220;49.808;9.968;2023-08-12T05:44:44;98975.94;;;20.96;77.39
46506;BME280;32220;49.808;9.968;2023-08-12T05:47:12;98997.91;;;21.09;76.64
46506;BME280;32220;49.808;9.968;2023-08-12T05:49:40;98976.38;;;21.09;77.45
46506;BME280;32220;49.808;9.968;2023-08-12T05:52:08;98967.81;;;21.13;77.22
46506;BME280;32220;49.808;9.968;2023-08-12T05:54:36;98988.78;;;21.28;77.15
46506;BME280;32220;49.808;9.968;2023-08-12T05:57:05;99007.00;;;21.34;76.78
46506;BME280;32220;49.808;9.968;2023-08-12T05:59:32;98988.44;;;21.23;76.62
46506;BME280;32220;49.808;9.968;2023-08-12T06:02:00;98993.50;;;21.26;76.55
46506;BME280;32220;49.808;9.968;2023-08-12T06:04:28;99022.25;;;21.51;75.98
46506;BME280;32220;49.808;9.968;2023-08-12T06:06:56;99011.81;;;21.56;75.74
46506;BME280;32220;49.808;9.968;2023-08-12T06:09:23;99010.84;;;21.65;75.65
46506;BME280;32220;49.808;9.968;2023-08-12T06:11:51;99008.91;;;21.83;75.26
46506;BME280;32220;49.808;9.968;2023-08-12T06:14:20;99014.84;;;21.95;75.15
46506;BME280;32220;49.808;9.968;2023-08-12T06:16:47;99002.88;;;21.98;74.68
46506;BME280;32220;49.808;9.968;2023-08-12T06:19:15;99010.66;;;22.01;74.59
46506;BME280;32220;49.808;9.968;2023-08-12T06:21:43;99006.31;;;22.08;74.74
46506;BME280;32220;49.808;9.968;2023-08-12T06:24:10;98992.47;;;22.03;74.54
46506;BME280;32220;49.808;9.968;2023-08-12T06:26:38;99000.22;;;22.14;74.33
46506;BME280;32220;49.808;9.968;2023-08-12T06:29:05;99002.97;;;22.22;74.32
46506;BME280;32220;49.808;9.968;2023-08-12T06:31:35;98991.16;;;22.23;74.55
46506;BME280;32220;49.808;9.968;2023-08-12T06:34:03;98989.00;;;22.35;74.21
46506;BME280;32220;49.808;9.968;2023-08-12T06:36:31;99000.97;;;22.56;74.11
46506;BME280;32220;49.808;9.968;2023-08-12T06:38:58;98980.56;;;22.70;73.79
46506;BME280;32220;49.808;9.968;2023-08-12T06:41:26;98987.47;;;22.97;73.36
46506;BME280;32220;49.808;9.968;2023-08-12T06:43:53;99009.69;;;23.32;72.39
46506;BME280;32220;49.808;9.968;2023-08-12T06:46:21;99016.06;;;23.47;71.22
46506;BME280;32220;49.808;9.968;2023-08-12T06:48:50;99003.22;;;23.49;71.05
46506;BME280;32220;49.808;9.968;2023-08-12T06:51:18;99002.53;;;23.55;70.58
46506;BME280;32220;49.808;9.968;2023-08-12T06:53:45;99002.00;;;23.68;70.49
46506;BME280;32220;49.808;9.968;2023-08-12T06:56:13;99015.16;;;24.02;70.24
46506;BME280;32220;49.808;9.968;2023-08-12T06:58:40;99018.59;;;24.26;69.58
46506;BME280;32220;49.808;9.968;2023-08-12T07:01:08;99018.16;;;24.46;68.96
46506;BME280;32220;49.808;9.968;2023-08-12T07:03:35;99019.25;;;24.59;68.50
46506;BME280;32220;49.808;9.968;2023-08-12T07:06:05;99014.41;;;24.69;67.69
46506;BME280;32220;49.808;9.968;2023-08-12T07:08:32;99009.22;;;24.83;66.70
46506;BME280;32220;49.808;9.968;2023-08-12T07:11:00;99030.31;;;25.10;65.54
46506;BME280;32220;49.808;9.968;2023-08-12T07:13:27;99033.88;;;25.25;64.63
46506;BME280;32220;49.808;9.968;2023-08-12T07:15:55;99026.59;;;25.26;64.08
46506;BME280;32220;49.808;9.968;2023-08-12T07:18:23;99016.72;;;25.33;63.77
46506;BME280;32220;49.808;9.968;2023-08-12T07:20:50;99013.13;;;25.47;63.69
46506;BME280;32220;49.808;9.968;2023-08-12T07:23:19;99027.59;;;25.62;62.67
46506;BME280;32220;49.808;9.968;2023-08-12T07:25:47;99024.31;;;25.67;62.51
46506;BME280;32220;49.808;9.968;2023-08-12T07:28:15;99023.19;;;25.76;62.32
46506;BME280;32220;49.808;9.968;2023-08-12T07:30:42;99041.19;;;25.98;62.60
46506;BME280;32220;49.808;9.968;2023-08-12T07:33:10;99021.47;;;26.04;62.45
46506;BME280;32220;49.808;9.968;2023-08-12T07:35:37;99020.84;;;26.24;62.28
46506;BME280;32220;49.808;9.968;2023-08-12T07:38:05;99013.00;;;26.29;61.87
46506;BME280;32220;49.808;9.968;2023-08-12T07:40:34;99004.84;;;26.29;61.65
46506;BME280;32220;49.808;9.968;2023-08-12T07:43:02;99006.88;;;26.41;61.19
46506;BME280;32220;49.808;9.968;2023-08-12T07:45:30;99011.94;;;26.72;60.60
46506;BME280;32220;49.808;9.968;2023-08-12T07:47:57;99037.81;;;27.11;59.01
46506;BME280;32220;49.808;9.968;2023-08-12T07:50:25;99026.50;;;27.35;59.01
46506;BME280;32220;49.808;9.968;2023-08-12T07:52:52;99023.75;;;27.57;57.88
46506;BME280;32220;49.808;9.968;2023-08-12T07:55:20;99028.78;;;27.60;57.36
46506;BME280;32220;49.808;9.968;2023-08-12T07:57:49;99030.78;;;27.79;56.88
46506;BME280;32220;49.808;9.968;2023-08-12T08:00:17;99043.88;;;28.03;56.35
46506;BME280;32220;49.808;9.968;2023-08-12T08:02:45;99032.88;;;28.18;56.04
46506;BME280;32220;49.808;9.968;2023-08-12T08:05:13;99049.06;;;28.39;55.79
46506;BME280;32220;49.808;9.968;2023-08-12T08:07:40;99035.41;;;28.33;54.67
46506;BME280;32220;49.808;9.968;2023-08-12T08:10:09;99040.41;;;28.22;54.46
46506;BME280;32220;49.808;9.968;2023-08-12T08:12:38;99037.88;;;28.21;53.89
46506;BME280;32220;49.808;9.968;2023-08-12T08:15:08;99034.50;;;28.19;54.10
46506;BME280;32220;49.808;9.968;2023-08-12T08:17:36;99031.00;;;28.25;53.90
46506;BME280;32220;49.808;9.968;2023-08-12T08:20:04;99032.06;;;28.37;54.60
46506;BME280;32220;49.808;9.968;2023-08-12T08:22:32;99038.41;;;28.51;55.20
46506;BME280;32220;49.808;9.968;2023-08-12T08:25:00;99035.47;;;28.59;53.42
46506;BME280;32220;49.808;9.968;2023-08-12T08:27:27;99027.97;;;28.81;53.20
46506;BME280;32220;49.808;9.968;2023-08-12T08:29:55;99043.94;;;29.23;50.82
46506;BME280;32220;49.808;9.968;2023-08-12T08:32:24;99060.63;;;29.80;49.05
46506;BME280;32220;49.808;9.968;2023-08-12T08:34:52;99048.09;;;30.68;48.02
46506;BME280;32220;49.808;9.968;2023-08-12T08:37:19;99060.59;;;31.63;45.37
46506;BME280;32220;49.808;9.968;2023-08-12T08:39:47;99057.66;;;32.68;44.81
46506;BME280;32220;49.808;9.968;2023-08-12T08:42:15;99068.47;;;33.46;42.65
46506;BME280;32220;49.808;9.968;2023-08-12T08:44:45;99071.31;;;33.51;42.35
46506;BME280;32220;49.808;9.968;2023-08-12T08:47:14;99063.91;;;33.63;41.81
46506;BME280;32220;49.808;9.968;2023-08-12T08:49:46;99071.09;;;33.41;42.40
46506;BME280;32220;49.808;9.968;2023-08-12T08:52:17;99057.00;;;33.26;42.78
46506;BME280;32220;49.808;9.968;2023-08-12T08:54:45;99060.34;;;33.28;41.78
46506;BME280;32220;49.808;9.968;2023-08-12T08:57:12;99070.31;;;33.75;42.77
46506;BME280;32220;49.808;9.968;2023-08-12T08:59:40;99077.41;;;34.51;40.15
46506;BME280;32220;49.808;9.968;2023-08-12T09:02:11;99083.41;;;35.05;40.32
46506;BME280;32220;49.808;9.968;2023-08-12T09:04:41;99088.94;;;34.77;39.26
46506;BME280;32220;49.808;9.968;2023-08-12T09:07:11;99079.72;;;34.71;39.10
46506;BME280;32220;49.808;9.968;2023-08-12T09:09:42;99061.19;;;34.67;39.12
46506;BME280;32220;49.808;9.968;2023-08-12T09:12:13;99086.31;;;34.70;38.47
46506;BME280;32220;49.808;9.968;2023-08-12T09:14:41;99082.47;;;34.71;39.46
46506;BME280;32220;49.808;9.968;2023-08-12T09:17:10;99077.94;;;34.65;38.57
46506;BME280;32220;49.808;9.968;2023-08-12T09:19:38;99074.53;;;34.75;39.94
46506;BME280;32220;49.808;9.968;2023-08-12T09:22:07;99066.09;;;34.65;40.20
46506;BME280;32220;49.808;9.968;2023-08-12T09:24:37;99064.06;;;34.43;41.20
46506;BME280;32220;49.808;9.968;2023-08-12T09:27:05;99067.97;;;34.07;42.34
46506;BME280;32220;49.808;9.968;2023-08-12T09:29:34;99038.88;;;33.25;44.41
46506;BME280;32220;49.808;9.968;2023-08-12T09:32:05;99061.78;;;32.59;46.48
46506;BME280;32220;49.808;9.968;2023-08-12T09:34:33;99035.69;;;32.26;48.33
46506;BME280;32220;49.808;9.968;2023-08-12T09:37:02;99000.81;;;32.75;47.41
46506;BME280;32220;49.808;9.968;2023-08-12T09:39:30;99053.03;;;33.22;45.34
46506;BME280;32220;49.808;9.968;2023-08-12T09:41:59;99060.53;;;33.14;44.63
46506;BME280;32220;49.808;9.968;2023-08-12T09:44:27;99048.31;;;32.87;45.13
46506;BME280;32220;49.808;9.968;2023-08-12T09:46:58;98990.75;;;32.09;47.53
46506;BME280;32220;49.808;9.968;2023-08-12T09:49:26;99022.59;;;31.73;49.04
46506;BME280;32220;49.808;9.968;2023-08-12T09:51:54;98998.78;;;31.31;51.58
46506;BME280;32220;49.808;9.968;2023-08-12T09:54:22;99004.94;;;31.01;51.07
46506;BME280;32220;49.808;9.968;2023-08-12T09:56:57;98995.00;;;30.82;52.49
46506;BME280;32220;49.808;9.968;2023-08-12T09:59:33;98993.06;;;30.89;53.60
46506;BME280;32220;49.808;9.968;2023-08-12T10:02:02;98994.44;;;30.98;52.63
46506;BME280;32220;49.808;9.968;2023-08-12T10:04:36;99005.19;;;31.25;52.48
46506;BME280;32220;49.808;9.968;2023-08-12T10:07:06;99001.56;;;31.49;52.00
46506;BME280;32220;49.808;9.968;2023-08-12T10:09:35;99002.50;;;31.80;51.72
46506;BME280;32220;49.808;9.968;2023-08-12T10:12:04;99013.75;;;32.08;50.28
46506;BME280;32220;49.808;9.968;2023-08-12T10:14:34;99020.97;;;32.80;47.96
46506;BME280;32220;49.808;9.968;2023-08-12T10:17:02;99012.19;;;33.02;48.43
46506;BME280;32220;49.808;9.968;2023-08-12T10:19:30;99006.81;;;33.18;46.80
46506;BME280;32220;49.808;9.968;2023-08-12T10:21:59;99018.91;;;33.29;45.46
46506;BME280;32220;49.808;9.968;2023-08-12T10:24:27;99015.59;;;33.50;46.82
46506;BME280;32220;49.808;9.968;2023-08-12T10:26:55;99012.59;;;33.75;47.43
46506;BME280;32220;49.808;9.968;2023-08-12T10:29:23;99002.72;;;34.03;46.56
46506;BME280;32220;49.808;9.968;2023-08-12T10:31:53;99020.22;;;34.37;45.00
46506;BME280;32220;49.808;9.968;2023-08-12T10:34:21;99032.13;;;34.71;43.11
46506;BME280;32220;49.808;9.968;2023-08-12T10:36:54;99014.28;;;34.73;42.27
46506;BME280;32220;49.808;9.968;2023-08-12T10:39:24;99006.28;;;34.72;42.50
46506;BME280;32220;49.808;9.968;2023-08-12T10:41:54;99016.19;;;34.73;42.17
46506;BME280;32220;49.808;9.968;2023-08-12T10:44:27;99022.09;;;34.65;41.65
46506;BME280;32220;49.808;9.968;2023-08-12T10:46:58;99023.09;;;34.75;41.06
46506;BME280;32220;49.808;9.968;2023-08-12T10:49:25;99016.22;;;34.89;41.68
46506;BME280;32220;49.808;9.968;2023-08-12T10:51:54;99011.16;;;34.98;41.79
46506;BME280;32220;49.808;9.968;2023-08-12T10:54:23;99006.88;;;35.41;41.93
46506;BME280;32220;49.808;9.968;2023-08-12T10:57:08;99004.75;;;35.64;42.29
46506;BME280;32220;49.808;9.968;2023-08-12T10:59:51;99010.75;;;35.78;41.44
46506;BME280;32220;49.808;9.968;2023-08-12T11:02:26;99011.34;;;35.80;40.14
46506;BME280;32220;49.808;9.968;2023-08-12T11:04:56;98989.78;;;35.77;40.65
46506;BME280;32220;49.808;9.968;2023-08-12T11:07:32;98991.00;;;36.30;39.84
46506;BME280;32220;49.808;9.968;2023-08-12T11:10:04;99004.66;;;37.69;39.31
46506;BME280;32220;49.808;9.968;2023-08-12T11:12:34;99025.72;;;38.43;36.11
46506;BME280;32220;49.808;9.968;2023-08-12T11:15:04;99012.38;;;38.20;35.81
46506;BME280;32220;49.808;9.968;2023-08-12T11:17:37;99001.91;;;37.74;35.02
46506;BME280;32220;49.808;9.968;2023-08-12T11:20:08;98997.41;;;37.21;35.58
46506;BME280;32220;49.808;9.968;2023-08-12T11:22:37;98989.94;;;36.90;36.48
46506;BME280;32220;49.808;9.968;2023-08-12T11:25:06;98987.34;;;36.51;36.05
46506;BME280;32220;49.808;9.968;2023-08-12T11:27:39;98988.19;;;36.25;36.99
46506;BME280;32220;49.808;9.968;2023-08-12T11:30:08;98970.34;;;36.11;38.06
46506;BME280;32220;49.808;9.968;2023-08-12T11:32:39;98955.66;;;36.05;39.06
46506;BME280;32220;49.808;9.968;2023-08-12T11:35:08;98945.06;;;36.19;39.66
46506;BME280;32220;49.808;9.968;2023-08-12T11:37:37;98948.22;;;36.27;38.72
46506;BME280;32220;49.808;9.968;2023-08-12T11:40:07;98962.63;;;36.13;37.08
46506;BME280;32220;49.808;9.968;2023-08-12T11:42:40;98947.06;;;36.02;37.43
46506;BME280;32220;49.808;9.968;2023-08-12T11:45:09;98958.75;;;36.30;36.88
46506;BME280;32220;49.808;9.968;2023-08-12T11:47:39;98943.78;;;36.26;37.07
46506;BME280;32220;49.808;9.968;2023-08-12T11:50:08;98947.03;;;36.45;36.33
46506;BME280;32220;49.808;9.968;2023-08-12T11:52:37;98910.94;;;36.52;37.30
46506;BME280;32220;49.808;9.968;2023-08-12T11:55:06;98934.59;;;36.75;36.25
46506;BME280;32220;49.808;9.968;2023-08-12T11:57:34;98925.22;;;36.71;35.65
46506;BME280;32220;49.808;9.968;2023-08-12T12:00:04;98929.72;;;36.82;37.61
46506;BME280;32220;49.808;9.968;2023-08-12T12:02:45;98928.03;;;36.81;36.78
46506;BME280;32220;49.808;9.968;2023-08-12T12:05:13;98923.00;;;36.73;36.74
46506;BME280;32220;49.808;9.968;2023-08-12T12:07:42;98931.47;;;36.66;36.05
46506;BME280;32220;49.808;9.968;2023-08-12T12:10:12;98946.03;;;36.56;37.50
46506;BME280;32220;49.808;9.968;2023-08-12T12:12:41;98931.78;;;36.16;38.58
46506;BME280;32220;49.808;9.968;2023-08-12T12:15:09;98946.28;;;35.79;37.82
46506;BME280;32220;49.808;9.968;2023-08-12T12:17:38;98950.22;;;35.45;40.05
46506;BME280;32220;49.808;9.968;2023-08-12T12:20:09;98955.59;;;35.01;40.27
46506;BME280;32220;49.808;9.968;2023-08-12T12:22:38;98959.22;;;34.56;41.94
46506;BME280;32220;49.808;9.968;2023-08-12T12:25:07;98942.41;;;33.96;42.21
46506;BME280;32220;49.808;9.968;2023-08-12T12:27:36;98984.84;;;33.77;43.10
46506;BME280;32220;49.808;9.968;2023-08-12T12:30:05;98987.28;;;33.38;44.21
46506;BME280;32220;49.808;9.968;2023-08-12T12:32:33;99010.16;;;32.97;44.40
46506;BME280;32220;49.808;9.968;2023-08-12T12:35:00;99032.38;;;32.36;43.15
46506;BME280;32220;49.808;9.968;2023-08-12T12:37:31;99064.22;;;31.64;43.92
46506;BME280;32220;49.808;9.968;2023-08-12T12:39:59;99103.47;;;30.95;45.21
46506;BME280;32220;49.808;9.968;2023-08-12T12:42:26;99169.41;;;30.22;46.80
46506;BME280;32220;49.808;9.968;2023-08-12T12:44:54;99149.25;;;29.31;51.35
46506;BME280;32220;49.808;9.968;2023-08-12T12:47:22;99127.84;;;28.00;57.45
46506;BME280;32220;49.808;9.968;2023-08-12T12:49:49;99103.84;;;26.47;63.06
46506;BME280;32220;49.808;9.968;2023-08-12T12:52:16;99075.94;;;25.59;68.33
46506;BME280;32220;49.808;9.968;2023-08-12T12:54:46;99060.28;;;24.94;69.86
46506;BME280;32220;49.808;9.968;2023-08-12T12:57:13;99032.94;;;24.58;71.70
46506;BME280;32220;49.808;9.968;2023-08-12T12:59:41;99034.94;;;24.41;73.43
46506;BME280;32220;49.808;9.968;2023-08-12T13:02:08;99001.97;;;24.07;73.81
46506;BME280;32220;49.808;9.968;2023-08-12T13:04:36;98999.66;;;23.95;75.21
46506;BME280;32220;49.808;9.968;2023-08-12T13:07:04;98976.91;;;23.82;74.59
46506;BME280;32220;49.808;9.968;2023-08-12T13:09:31;98978.50;;;23.68;74.71